aviador You're here:

HSSS Decoded Metar

KHARTOUM in SUDAN
Report Time2018-02-21 04:30:00
UTC Time2018-02-21 05:06:20
Flight Rules vfr VFR
Wind360° at 04 kt
W.Decomp.*RWY 36: 4.0 kt HW 0.1 kt LCW
Visibility9999 m
Phenomena:N/A
Clouds:N/A
Expected CloudBase > 10,000 ft AGL from Temp-Dew spread
CeilingNone
Temp22°C (ISA +9)
Dew Point-3°C (19% RH)
AAT18.2°C
QNH1010 hPa
Density Alt2,523 ft
Elevation1,247 ft
Report Wrong Elevation
Raw Report
HSSS 210430Z 36004KT CAVOK 22/M03 Q1010 NOSIG=

Extra information for HSSS:More info

Metar Taf Metar & Taf Last 4 Metars F.Rules Stats Wind Profile Meteogram Temp Stats Airport Information Weather charts Add Link Nearby VenuesMetar ALERT Operation Metar Decoded Social comments